Time;durP1;ratioP1;P1;durP2;ratioP2;P2;SDS_P1;SDS_P2;PMS_P1;PMS_P2;Temp;Humidity;BMP_temperature;BMP_pressure;BME280_temperature;BME280_humidity;BME280_pressure;Samples;Min_cycle;Max_cycle;Signal;HPM_P1;HPM_P2
2023/10/08 00:00:49;;;;;;;10.43;5.95;;;;;;;20.53;63.69;101108.32;2351511;73;51310;-78
2023/10/08 00:03:53;;;;;;;8.23;5.58;;;;;;;20.52;63.61;101121.41;2344023;74;21849;-77
2023/10/08 00:06:55;;;;;;;12.80;5.67;;;;;;;20.49;63.78;101125.82;2379981;74;22229;-78
2023/10/08 00:09:57;;;;;;;10.63;5.92;;;;;;;20.51;63.59;101143.13;2342320;74;52251;-76
2023/10/08 00:12:59;;;;;;;10.23;6.25;;;;;;;20.52;63.70;101152.33;2342221;74;51505;-76
2023/10/08 00:16:02;;;;;;;7.60;5.55;;;;;;;20.51;63.65;101153.36;2316246;74;52352;-75
2023/10/08 00:19:09;;;;;;;12.03;5.80;;;;;;;20.49;63.63;101125.82;2369357;74;50212;-76
2023/10/08 00:22:09;;;;;;;8.15;5.67;;;;;;;20.48;63.65;101133.58;2342315;74;22141;-76
2023/10/08 00:25:11;;;;;;;10.35;5.92;;;;;;;20.49;63.62;101139.27;2342529;74;50291;-77
2023/10/08 00:28:14;;;;;;;11.25;5.25;;;;;;;20.47;63.56;101138.61;2351293;73;51499;-78
2023/10/08 00:31:17;;;;;;;10.85;5.22;;;;;;;20.46;63.69;101147.70;2376699;74;50629;-77
2023/10/08 00:34:20;;;;;;;8.85;5.40;;;;;;;20.47;63.79;101150.70;2379367;74;50938;-76
2023/10/08 00:37:26;;;;;;;9.90;4.83;;;;;;;20.47;63.60;101145.84;2352180;75;50257;-77
2023/10/08 00:40:29;;;;;;;8.10;4.65;;;;;;;20.45;63.49;101155.45;2349598;74;22311;-77
2023/10/08 00:43:35;;;;;;;7.20;5.00;;;;;;;20.45;63.56;101151.42;2350167;75;22016;-76
2023/10/08 00:46:42;;;;;;;10.03;5.45;;;;;;;20.49;63.54;101162.11;2359112;75;51607;-77
2023/10/08 00:53:10;;;;;;;8.35;4.70;;;;;;;20.45;63.47;101169.72;2374615;74;22253;-78
2023/10/08 00:55:54;;;;;;;9.75;4.85;;;;;;;20.46;63.52;101178.61;2352156;75;22290;-78
2023/10/08 00:58:55;;;;;;;7.78;4.75;;;;;;;20.45;63.47;101171.06;2359236;74;22730;-77
2023/10/08 01:02:06;;;;;;;7.92;4.65;;;;;;;20.45;63.44;101175.61;2329075;75;50240;-77
2023/10/08 01:05:04;;;;;;;8.70;4.62;;;;;;;20.47;63.50;101187.51;2350149;74;22269;-78
2023/10/08 01:08:07;;;;;;;7.90;4.70;;;;;;;20.45;63.38;101186.37;2355701;75;51533;-78
2023/10/08 01:11:39;;;;;;;8.50;4.72;;;;;;;20.44;63.38;101187.36;2378252;74;50759;-78
2023/10/08 01:14:32;;;;;;;8.18;4.20;;;;;;;20.45;63.52;101184.50;2371530;74;22247;-77
2023/10/08 01:17:32;;;;;;;12.33;4.25;;;;;;;20.48;63.42;101171.72;2356797;74;22440;-75
2023/10/08 01:20:34;;;;;;;7.53;4.30;;;;;;;20.47;63.37;101181.62;2356111;74;22196;-78
2023/10/08 01:23:38;;;;;;;7.10;4.30;;;;;;;20.45;63.31;101191.74;2350436;74;50663;-77
2023/10/08 01:26:40;;;;;;;7.22;4.20;;;;;;;20.43;63.27;101197.29;2331564;75;24640;-77
2023/10/08 01:29:44;;;;;;;6.50;4.00;;;;;;;20.45;63.45;101203.84;2357938;74;51537;-75
2023/10/08 01:32:46;;;;;;;8.50;3.98;;;;;;;20.43;63.35;101197.29;2363443;75;50315;-76
2023/10/08 01:35:51;;;;;;;8.30;4.25;;;;;;;20.44;63.38;101198.11;2364077;75;50380;-76
2023/10/08 01:38:54;;;;;;;8.43;4.35;;;;;;;20.45;63.43;101215.42;2336404;75;50116;-76
2023/10/08 01:41:56;;;;;;;8.35;3.80;;;;;;;20.43;63.42;101214.76;2360771;74;50789;-77
2023/10/08 01:44:58;;;;;;;5.92;3.75;;;;;;;20.45;63.41;101222.66;2322985;75;50156;-76
2023/10/08 01:48:01;;;;;;;7.60;3.75;;;;;;;20.44;63.31;101221.80;2322983;75;50710;-76
2023/10/08 01:51:08;;;;;;;7.40;4.05;;;;;;;20.44;63.25;101230.37;2297598;75;51201;-75
2023/10/08 01:54:11;;;;;;;6.83;4.30;;;;;;;20.41;63.25;101225.36;2322812;74;22303;-76
2023/10/08 01:57:12;;;;;;;7.67;3.95;;;;;;;20.41;63.19;101229.39;2323378;75;22369;-76
2023/10/08 02:00:19;;;;;;;7.47;3.90;;;;;;;20.40;63.21;101234.45;2365470;74;51532;-75
2023/10/08 02:03:19;;;;;;;6.65;4.03;;;;;;;20.41;63.24;101244.18;2369892;74;22363;-77
2023/10/08 02:06:21;;;;;;;6.55;3.83;;;;;;;20.41;63.37;101249.56;2375927;74;50498;-78
2023/10/08 02:09:26;;;;;;;6.15;3.67;;;;;;;20.41;63.16;101258.45;2370066;74;51598;-78
2023/10/08 02:12:27;;;;;;;9.43;4.03;;;;;;;20.40;63.14;101255.45;2343029;75;22234;-76
2023/10/08 02:15:29;;;;;;;6.75;3.50;;;;;;;20.42;63.29;101257.94;2342945;74;50649;-76
2023/10/08 02:18:32;;;;;;;7.90;3.83;;;;;;;20.44;63.29;101253.22;2342658;75;50893;-76
2023/10/08 02:21:36;;;;;;;5.25;3.77;;;;;;;20.43;63.20;101242.98;2343128;74;51491;-76
2023/10/08 02:24:40;;;;;;;5.95;3.58;;;;;;;20.42;63.18;101269.55;2375737;74;50666;-77
2023/10/08 02:27:42;;;;;;;7.05;3.55;;;;;;;20.42;63.03;101279.44;2333095;75;51538;-76
2023/10/08 02:30:44;;;;;;;5.42;3.65;;;;;;;20.42;63.06;101276.75;2340581;74;50306;-77
2023/10/08 02:33:47;;;;;;;7.47;3.47;;;;;;;20.41;63.05;101283.16;2349648;75;50334;-77
2023/10/08 02:36:49;;;;;;;8.60;3.87;;;;;;;20.40;63.10;101309.20;2323128;75;50270;-77
2023/10/08 02:39:51;;;;;;;6.58;3.37;;;;;;;20.42;63.19;101316.59;2323210;75;50175;-77
2023/10/08 02:42:58;;;;;;;5.47;3.40;;;;;;;20.40;63.02;101320.47;2297151;75;51570;-77
2023/10/08 02:46:00;;;;;;;5.28;3.50;;;;;;;20.41;63.08;101307.34;2333758;75;51541;-75
2023/10/08 02:49:03;;;;;;;5.60;3.40;;;;;;;20.41;62.93;101306.00;2323019;75;50290;-76
2023/10/08 02:52:06;;;;;;;6.55;3.08;;;;;;;20.39;62.91;101316.09;2281734;75;52435;-76
2023/10/08 02:55:20;;;;;;;5.33;2.83;;;;;;;20.38;62.93;101305.85;2357786;75;50409;-76
2023/10/08 02:58:18;;;;;;;5.65;3.50;;;;;;;20.40;63.11;101309.20;2331564;75;22210;-77
2023/10/08 03:01:17;;;;;;;5.05;3.22;;;;;;;20.40;62.97;101317.78;2318296;75;22243;-77
2023/10/08 03:04:19;;;;;;;7.97;3.58;;;;;;;20.40;62.86;101311.06;2370468;75;49924;-77
2023/10/08 03:07:21;;;;;;;6.20;3.40;;;;;;;20.38;62.88;101309.05;2316697;75;50619;-77
2023/10/08 03:10:31;;;;;;;5.53;3.27;;;;;;;20.39;63.00;101320.12;2290682;75;51171;-77
2023/10/08 03:13:27;;;;;;;4.85;2.95;;;;;;;20.39;62.94;101308.03;2369081;75;22343;-75
2023/10/08 03:16:34;;;;;;;6.12;3.80;;;;;;;20.40;62.95;101317.78;2370716;75;51275;-76
2023/10/08 03:19:35;;;;;;;9.08;3.40;;;;;;;20.41;62.92;101301.97;2338055;74;22454;-76
2023/10/08 03:22:37;;;;;;;5.85;2.83;;;;;;;20.42;62.94;101306.32;2370554;75;51584;-76
2023/10/08 03:25:42;;;;;;;9.58;3.40;;;;;;;20.42;62.86;101318.41;2311606;75;52364;-75
2023/10/08 03:28:45;;;;;;;6.72;2.95;;;;;;;20.44;62.88;101321.77;2341377;74;50885;-76
2023/10/08 03:34:54;;;;;;;6.28;3.40;;;;;;;20.43;62.78;101320.11;2359622;74;22308;-75
2023/10/08 03:38:17;;;;;;;8.60;3.30;;;;;;;20.42;62.78;101323.80;2367795;75;22327;-76
2023/10/08 03:41:06;;;;;;;5.00;2.62;;;;;;;20.42;62.79;101358.73;2329521;74;22797;-75
2023/10/08 03:44:06;;;;;;;8.88;3.17;;;;;;;20.42;62.87;101363.63;2311476;75;22216;-77
2023/10/08 03:47:13;;;;;;;5.08;2.70;;;;;;;20.42;62.75;101360.08;2335762;74;51512;-76
2023/10/08 03:50:17;;;;;;;7.30;2.98;;;;;;;20.40;62.80;101359.45;2369885;74;22365;-76
2023/10/08 03:53:16;;;;;;;3.95;2.90;;;;;;;20.38;62.74;101374.39;2335771;74;22217;-77
2023/10/08 03:56:19;;;;;;;6.33;3.10;;;;;;;20.40;62.75;101387.16;2309859;75;50599;-77
2023/10/08 03:59:58;;;;;;;4.70;2.77;;;;;;;20.38;62.70;101387.83;2351647;73;52427;-75
2023/10/08 04:03:23;;;;;;;5.67;2.90;;;;;;;20.39;62.63;101402.11;2330851;76;22391;-76
2023/10/08 04:05:59;;;;;;;6.20;2.95;;;;;;;20.40;62.78;101401.11;2317553;76;21941;-77
2023/10/08 04:08:58;;;;;;;5.00;2.83;;;;;;;20.41;62.70;101401.42;2313228;76;22501;-76
2023/10/08 04:11:51;;;;;;;6.08;3.05;;;;;;;20.38;62.66;101413.88;2338067;74;22967;-75
2023/10/08 04:14:55;;;;;;;5.20;3.05;;;;;;;20.39;62.74;101420.92;2341772;75;50574;-76
2023/10/08 04:17:59;;;;;;;4.45;2.62;;;;;;;20.40;62.71;101403.28;2316049;76;23043;-76
2023/10/08 04:21:04;;;;;;;4.58;2.98;;;;;;;20.40;62.66;101401.11;2341834;75;51559;-76
2023/10/08 04:24:06;;;;;;;4.58;2.75;;;;;;;20.41;62.61;101422.94;2339914;74;22274;-76
2023/10/08 04:27:09;;;;;;;6.22;2.70;;;;;;;20.40;62.59;101423.95;2316750;73;51898;-76
2023/10/08 04:30:13;;;;;;;5.97;2.55;;;;;;;20.39;62.58;101434.36;2372382;73;50358;-76
2023/10/08 04:33:15;;;;;;;4.67;2.52;;;;;;;20.39;62.59;101448.63;2341917;74;50841;-76
2023/10/08 04:36:20;;;;;;;4.05;2.70;;;;;;;20.40;62.67;101448.15;2341734;74;50078;-76
2023/10/08 04:39:26;;;;;;;6.35;2.80;;;;;;;20.40;62.45;101473.69;2369004;74;50323;-76
2023/10/08 04:42:26;;;;;;;4.80;2.72;;;;;;;20.40;62.54;101475.86;2338749;74;22254;-76
2023/10/08 04:45:33;;;;;;;7.35;2.50;;;;;;;20.39;62.55;101484.09;2336282;75;51539;-76
2023/10/08 04:48:33;;;;;;;4.15;2.55;;;;;;;20.36;62.42;101469.66;2363565;75;22366;-76
2023/10/08 04:51:43;;;;;;;6.53;3.10;;;;;;;20.36;62.52;101476.38;2363515;75;51525;-76
2023/10/08 04:54:40;;;;;;;4.08;2.37;;;;;;;20.39;62.53;101467.96;2335677;75;23172;-76
2023/10/08 04:57:42;;;;;;;4.10;2.60;;;;;;;20.39;62.43;101474.68;2343776;74;51984;-76
2023/10/08 05:00:53;;;;;;;4.75;2.75;;;;;;;20.35;62.41;101473.38;2375933;74;51524;-77
2023/10/08 05:07:17;;;;;;;4.15;2.60;;;;;;;20.37;62.51;101474.88;2364461;75;22292;-76
2023/10/08 05:16:43;;;;;;;5.12;2.90;;;;;;;20.40;62.41;101509.47;2336946;75;22877;-76
2023/10/08 05:29:39;;;;;;;3.95;2.30;;;;;;;20.38;62.33;101521.41;2361293;75;22458;-76
2023/10/08 05:32:37;;;;;;;4.03;2.40;;;;;;;20.40;62.23;101540.38;2324573;75;22271;-78
2023/10/08 05:38:48;;;;;;;8.23;2.70;;;;;;;20.39;62.44;101546.74;2351580;74;22283;-76
2023/10/08 05:41:54;;;;;;;5.75;2.90;;;;;;;20.40;62.55;101547.09;2349095;74;22289;-77
2023/10/08 05:45:13;;;;;;;14.10;3.55;;;;;;;20.41;62.56;101558.17;2354090;74;23044;-77
2023/10/08 05:48:38;;;;;;;15.60;4.33;;;;;;;20.43;62.75;101564.22;2346681;74;22249;-77
2023/10/08 05:51:13;;;;;;;15.20;3.70;;;;;;;20.42;62.89;101588.57;2356303;74;22696;-77
2023/10/08 05:54:11;;;;;;;13.62;3.65;;;;;;;20.43;62.79;101582.20;2323679;74;22176;-76
2023/10/08 06:06:47;;;;;;;32.63;5.50;;;;;;;20.44;63.14;101600.83;2364119;74;22311;-77
2023/10/08 06:10:01;;;;;;;34.03;4.95;;;;;;;20.42;63.50;101606.05;2332346;74;22994;-78
2023/10/08 06:12:59;;;;;;;18.62;4.47;;;;;;;20.43;63.12;101622.53;2355981;75;22342;-78
2023/10/08 06:16:05;;;;;;;22.73;3.75;;;;;;;20.44;62.86;101628.22;2355108;75;22498;-78
2023/10/08 06:18:56;;;;;;;19.62;4.30;;;;;;;20.44;62.47;101638.47;2363725;74;22294;-77
2023/10/08 06:21:58;;;;;;;23.07;4.62;;;;;;;20.43;62.19;101646.72;2337998;74;50714;-78
2023/10/08 06:25:17;;;;;;;25.12;3.90;;;;;;;20.42;62.10;101657.98;2339008;74;51243;-75
2023/10/08 06:28:04;;;;;;;20.70;4.35;;;;;;;20.42;62.11;101674.11;2334161;74;23018;-76
2023/10/08 06:31:06;;;;;;;18.87;3.70;;;;;;;20.48;62.17;101670.41;2358482;74;51413;-74
2023/10/08 06:34:12;;;;;;;20.32;3.98;;;;;;;20.51;62.24;101666.03;2341379;75;50223;-74
2023/10/08 06:37:15;;;;;;;20.85;3.92;;;;;;;20.53;62.27;101662.16;2363724;74;22478;-74
2023/10/08 06:43:38;;;;;;;24.00;3.95;;;;;;;20.59;62.36;101683.00;2383093;73;24359;-77
2023/10/08 06:46:41;;;;;;;25.48;4.08;;;;;;;20.64;62.35;101686.02;2332004;74;50265;-75
2023/10/08 06:49:46;;;;;;;16.23;3.58;;;;;;;20.64;62.45;101695.44;2383042;74;50831;-75
2023/10/08 06:52:49;;;;;;;20.82;3.92;;;;;;;20.66;62.50;101696.11;2322579;75;52106;-76
2023/10/08 06:56:04;;;;;;;18.42;3.90;;;;;;;20.73;62.39;101707.52;2327136;73;50288;-74
2023/10/08 06:58:55;;;;;;;22.62;3.60;;;;;;;20.76;62.21;101719.30;2375445;73;22313;-74
2023/10/08 07:01:58;;;;;;;23.70;4.85;;;;;;;20.78;62.36;101720.81;2374316;74;50722;-74
2023/10/08 07:05:09;;;;;;;18.32;3.45;;;;;;;20.84;62.18;101720.62;2367401;74;51674;-75
2023/10/08 07:08:06;;;;;;;12.20;3.72;;;;;;;20.82;62.21;101733.39;2346334;73;22343;-78
2023/10/08 07:11:11;;;;;;;24.43;4.00;;;;;;;20.90;62.03;101727.99;2346874;74;50678;-78
2023/10/08 07:14:14;;;;;;;19.95;3.85;;;;;;;20.93;62.01;101730.84;2348703;75;22188;-76
2023/10/08 07:17:19;;;;;;;19.23;3.90;;;;;;;20.93;61.92;101741.60;2348626;75;22363;-77
2023/10/08 07:20:22;;;;;;;21.57;3.47;;;;;;;20.95;61.87;101739.59;2348763;75;22308;-77
2023/10/08 07:23:25;;;;;;;14.70;3.35;;;;;;;20.97;61.80;101751.86;2348767;75;22316;-76
2023/10/08 07:26:35;;;;;;;15.75;3.92;;;;;;;21.01;61.73;101753.69;2351559;74;50684;-73
2023/10/08 07:29:32;;;;;;;16.80;4.20;;;;;;;21.01;61.69;101754.52;2371351;74;22330;-75
2023/10/08 07:32:34;;;;;;;19.48;4.20;;;;;;;21.03;61.72;101755.19;2351487;75;51234;-76
2023/10/08 07:35:39;;;;;;;31.25;4.28;;;;;;;21.03;61.70;101771.85;2371477;73;50716;-76
2023/10/08 07:38:45;;;;;;;18.50;4.20;;;;;;;21.00;61.73;101768.16;2365039;74;50669;-75
2023/10/08 07:41:48;;;;;;;21.80;3.60;;;;;;;20.99;61.67;101772.72;2310571;75;49589;-75
2023/10/08 07:44:54;;;;;;;17.75;4.50;;;;;;;20.93;61.84;101774.72;2361808;75;50473;-75
2023/10/08 07:47:55;;;;;;;19.70;4.55;;;;;;;20.92;61.86;101780.30;2362592;75;22356;-73
2023/10/08 07:50:57;;;;;;;28.92;3.80;;;;;;;20.92;61.84;101780.30;2362797;75;50750;-74
2023/10/08 07:53:59;;;;;;;20.60;3.87;;;;;;;20.92;61.88;101786.51;2351487;73;50076;-75
2023/10/08 07:57:12;;;;;;;22.95;4.20;;;;;;;20.87;61.96;101787.52;2375540;73;50137;-76
2023/10/08 08:00:18;;;;;;;26.73;4.35;;;;;;;20.91;61.91;101786.19;2370169;73;51500;-76
2023/10/08 08:03:21;;;;;;;24.75;5.12;;;;;;;20.87;62.20;101797.77;2336291;74;50182;-75
2023/10/08 08:06:23;;;;;;;28.07;4.33;;;;;;;20.90;62.10;101792.56;2314229;74;52420;-75
2023/10/08 08:09:26;;;;;;;35.38;4.42;;;;;;;20.92;62.10;101795.92;2371386;75;51842;-76
2023/10/08 08:12:32;;;;;;;29.12;4.58;;;;;;;20.94;62.07;101807.36;2361216;73;50444;-76
2023/10/08 08:15:34;;;;;;;28.07;4.47;;;;;;;20.92;62.13;101809.37;2351480;75;22312;-76
2023/10/08 08:18:39;;;;;;;32.20;4.62;;;;;;;20.93;62.08;101809.70;2373914;75;50660;-78
2023/10/08 08:21:45;;;;;;;;;;;;;;;20.89;62.47;101817.80;2321247;75;52565;-75
2023/10/08 08:24:46;;;;;;;31.00;4.58;;;;;;;20.93;62.39;101819.12;2393568;73;22329;-76
2023/10/08 08:27:49;;;;;;;36.68;4.72;;;;;;;20.94;62.31;101821.33;2372397;74;50305;-76
2023/10/08 08:30:55;;;;;;;35.65;5.37;;;;;;;20.93;62.35;101823.66;2293776;73;51203;-78
2023/10/08 08:33:59;;;;;;;34.73;5.05;;;;;;;20.92;62.63;101826.03;2370341;75;50424;-77
2023/10/08 08:37:01;;;;;;;35.83;5.55;;;;;;;20.89;62.71;101835.28;2358342;74;22277;-76
2023/10/08 08:40:17;;;;;;;38.28;5.53;;;;;;;20.87;63.27;101840.82;2335153;73;52479;-76
2023/10/08 08:43:13;;;;;;;23.00;4.47;;;;;;;20.87;63.07;101840.82;2351548;75;22408;-76
2023/10/08 08:46:16;;;;;;;36.65;6.15;;;;;;;20.87;62.99;101846.71;2351040;75;52674;-77
2023/10/08 08:49:18;;;;;;;28.60;4.90;;;;;;;20.83;63.13;101840.84;2347326;75;51475;-77
2023/10/08 08:52:20;;;;;;;43.00;5.00;;;;;;;20.80;63.18;101847.05;2370890;75;50054;-77
2023/10/08 08:55:22;;;;;;;35.43;5.75;;;;;;;20.79;63.21;101856.97;2335608;75;50847;-77
2023/10/08 08:58:25;;;;;;;31.27;4.95;;;;;;;20.78;63.25;101860.68;2371638;75;50615;-77
2023/10/08 09:01:27;;;;;;;38.83;5.85;;;;;;;20.77;63.26;101856.80;2374360;74;52316;-80
2023/10/08 09:04:30;;;;;;;34.80;5.15;;;;;;;20.77;63.60;101862.18;2335211;75;51127;-75
2023/10/08 09:07:33;;;;;;;31.70;4.70;;;;;;;20.78;63.67;101855.30;2370342;74;51528;-77
2023/10/08 09:10:50;;;;;;;38.42;6.33;;;;;;;20.78;63.93;101872.78;2335134;75;50181;-76
2023/10/08 09:13:43;;;;;;;31.37;6.53;;;;;;;20.84;63.72;101857.81;2360322;75;22920;-76
2023/10/08 09:16:46;;;;;;;30.08;6.12;;;;;;;20.85;63.79;101871.59;2335105;75;51605;-77
2023/10/08 09:19:50;;;;;;;39.27;6.15;;;;;;;20.81;63.83;101875.13;2335514;75;51243;-76
2023/10/08 09:23:11;;;;;;;36.30;7.50;;;;;;;20.80;63.90;101875.29;2335527;75;51572;-76
2023/10/08 09:26:14;;;;;;;34.88;5.20;;;;;;;20.79;63.92;101879.00;2370246;74;22295;-77
2023/10/08 09:29:16;;;;;;;35.33;5.90;;;;;;;20.76;63.99;101872.11;2350879;73;51219;-77
2023/10/08 09:32:23;;;;;;;23.50;5.25;;;;;;;20.76;63.98;101886.06;2344069;75;50632;-77
2023/10/08 09:35:24;;;;;;;35.05;5.00;;;;;;;20.78;63.67;101884.89;2369800;75;23419;-77
2023/10/08 09:38:30;;;;;;;26.77;5.25;;;;;;;20.80;63.50;101888.73;2370372;75;51575;-77
2023/10/08 09:41:30;;;;;;;29.45;6.25;;;;;;;20.78;63.49;101879.98;2370172;75;22477;-76
2023/10/08 09:44:32;;;;;;;29.50;5.17;;;;;;;20.77;63.69;101883.70;2367847;75;51560;-76
2023/10/08 09:47:37;;;;;;;33.88;5.67;;;;;;;20.78;63.40;101876.82;2356324;74;50674;-78
2023/10/08 09:50:41;;;;;;;23.95;5.80;;;;;;;20.81;63.34;101889.09;2364948;74;50297;-77
2023/10/08 09:54:13;;;;;;;24.23;4.42;;;;;;;20.85;63.14;101891.25;2337877;75;52431;-77
2023/10/08 09:57:19;;;;;;;27.35;4.42;;;;;;;20.81;63.12;101889.09;2356103;75;22263;-77
2023/10/08 10:00:30;;;;;;;28.60;4.80;;;;;;;20.79;62.89;101903.20;2370743;74;22315;-77
2023/10/08 10:03:25;;;;;;;23.18;4.12;;;;;;;20.76;62.69;101901.70;2358737;74;22797;-78
2023/10/08 10:06:27;;;;;;;33.23;4.87;;;;;;;20.75;62.63;101897.81;2360112;75;51459;-77
2023/10/08 10:09:29;;;;;;;27.58;5.12;;;;;;;20.75;62.49;101906.72;2346889;75;50626;-78
2023/10/08 10:12:32;;;;;;;21.93;4.30;;;;;;;20.76;62.55;101911.62;2346740;74;51867;-77
2023/10/08 10:15:37;;;;;;;26.42;4.45;;;;;;;20.76;62.47;101908.93;2359687;75;50726;-77
2023/10/08 10:18:40;;;;;;;14.43;3.80;;;;;;;20.76;62.46;101910.28;2359556;75;50225;-77
2023/10/08 10:21:42;;;;;;;25.75;4.95;;;;;;;20.76;62.39;101922.38;2374294;74;50357;-77
2023/10/08 10:24:45;;;;;;;25.95;4.55;;;;;;;20.74;62.44;101921.19;2359287;75;50220;-77
2023/10/08 10:28:00;;;;;;;23.95;4.30;;;;;;;20.74;62.41;101919.01;2345972;75;51480;-77
2023/10/08 10:31:03;;;;;;;25.52;4.28;;;;;;;20.77;62.34;101920.02;2356758;75;50299;-77
2023/10/08 10:34:08;;;;;;;24.70;3.98;;;;;;;20.75;62.33;101914.78;2357401;75;50655;-77
2023/10/08 10:37:19;;;;;;;16.12;4.10;;;;;;;20.75;62.30;101919.33;2330859;75;50236;-77
2023/10/08 10:40:14;;;;;;;19.42;4.17;;;;;;;20.76;62.30;101925.06;2351348;74;22269;-77
2023/10/08 10:43:20;;;;;;;25.37;4.05;;;;;;;20.74;62.32;101929.77;2303692;75;51643;-78
2023/10/08 10:46:30;;;;;;;15.95;3.83;;;;;;;20.73;62.36;101928.06;2371278;74;22274;-77
2023/10/08 10:49:36;;;;;;;17.48;3.92;;;;;;;20.73;62.30;101926.72;2383886;74;51554;-78
2023/10/08 10:52:51;;;;;;;13.65;3.77;;;;;;;20.73;62.24;101928.94;2350972;74;22990;-77
2023/10/08 10:56:05;;;;;;;17.25;3.60;;;;;;;20.72;62.27;101930.43;2383398;74;22213;-79
2023/10/08 10:59:53;;;;;;;18.87;4.90;;;;;;;20.72;62.23;101933.12;2382630;74;22354;-77
2023/10/08 11:02:20;;;;;;;20.20;4.25;;;;;;;20.73;62.17;101939.69;2353583;74;22771;-77
2023/10/08 11:05:19;;;;;;;16.12;3.80;;;;;;;20.73;62.16;101936.13;2381628;74;22436;-78
2023/10/08 11:08:23;;;;;;;24.87;4.08;;;;;;;20.68;61.99;101934.45;2383349;74;22268;-79
2023/10/08 11:11:29;;;;;;;17.02;3.52;;;;;;;20.68;62.21;101935.31;2382535;74;22432;-77
2023/10/08 11:14:33;;;;;;;12.82;3.90;;;;;;;20.72;62.27;101918.33;2383436;74;50786;-79
2023/10/08 11:17:36;;;;;;;19.30;3.92;;;;;;;20.74;62.41;101921.70;2383822;74;51563;-78
2023/10/08 11:20:44;;;;;;;23.85;4.30;;;;;;;20.76;62.47;101925.06;2351172;74;50675;-76
2023/10/08 11:24:08;;;;;;;22.52;4.78;;;;;;;20.76;62.48;101919.69;2351405;74;22337;-77
2023/10/08 11:27:28;;;;;;;16.07;3.55;;;;;;;20.76;62.32;101912.45;2377655;74;22252;-78
2023/10/08 11:30:23;;;;;;;24.23;4.67;;;;;;;20.73;62.24;101909.23;2397593;73;22379;-80
2023/10/08 11:33:27;;;;;;;18.05;4.20;;;;;;;20.74;62.17;101905.56;2377850;73;51342;-77
2023/10/08 11:36:30;;;;;;;19.57;4.75;;;;;;;20.76;62.42;101906.23;2425445;73;51742;-77
2023/10/08 11:39:45;;;;;;;17.05;3.83;;;;;;;20.76;62.47;101919.69;2425411;73;50367;-79
2023/10/08 11:42:44;;;;;;;11.93;3.47;;;;;;;20.79;62.35;101916.66;2391677;73;22295;-77
2023/10/08 11:45:49;;;;;;;13.48;3.70;;;;;;;20.78;62.14;101929.28;2387116;73;50345;-77
2023/10/08 11:48:51;;;;;;;17.90;4.72;;;;;;;20.81;62.07;101924.06;2343565;75;52496;-78
2023/10/08 11:51:55;;;;;;;16.87;3.87;;;;;;;20.82;61.95;101913.12;2310603;75;50810;-77
2023/10/08 11:54:57;;;;;;;16.15;4.05;;;;;;;20.83;61.94;101906.75;2311093;76;50262;-77
2023/10/08 11:58:00;;;;;;;11.73;3.40;;;;;;;20.81;61.91;101919.52;2325272;74;51442;-77
2023/10/08 12:01:03;;;;;;;19.75;4.05;;;;;;;20.78;61.96;101919.86;2371017;74;50785;-78
2023/10/08 12:04:12;;;;;;;17.55;3.95;;;;;;;20.79;61.99;101919.35;2363831;75;50794;-77
2023/10/08 12:07:10;;;;;;;15.10;3.95;;;;;;;20.78;62.02;101918.99;2316347;75;22396;-78
2023/10/08 12:10:12;;;;;;;11.65;3.30;;;;;;;20.75;62.14;101928.23;2364025;75;50362;-79
2023/10/08 12:13:16;;;;;;;16.42;4.20;;;;;;;20.76;62.06;101923.21;2357827;74;50344;-77
2023/10/08 12:16:22;;;;;;;17.48;4.05;;;;;;;20.73;62.20;101930.28;2330966;75;51797;-77
2023/10/08 12:19:26;;;;;;;14.00;3.70;;;;;;;20.75;62.15;101927.41;2357995;74;51678;-78
2023/10/08 12:22:28;;;;;;;14.68;3.75;;;;;;;20.78;61.97;101927.06;2363593;75;50318;-76
2023/10/08 12:25:32;;;;;;;13.20;4.33;;;;;;;20.75;61.83;101924.71;2316286;75;51527;-76
2023/10/08 12:28:34;;;;;;;13.62;4.60;;;;;;;20.70;61.74;101919.83;2371444;74;50675;-76
2023/10/08 12:31:36;;;;;;;12.35;4.90;;;;;;;20.70;61.68;101904.20;2373100;74;51525;-76
2023/10/08 12:34:38;;;;;;;14.78;4.72;;;;;;;20.66;61.44;101901.84;2358277;75;51395;-77
2023/10/08 12:37:44;;;;;;;14.28;4.90;;;;;;;20.68;61.37;101898.14;2358535;74;51497;-77
2023/10/08 12:40:47;;;;;;;12.45;4.87;;;;;;;20.66;61.01;101906.39;2332244;74;22310;-77
2023/10/08 12:43:52;;;;;;;13.93;5.17;;;;;;;20.69;61.21;101903.36;2332570;75;50271;-77
2023/10/08 12:46:56;;;;;;;14.98;5.97;;;;;;;20.70;60.95;101901.51;2340418;74;22990;-77
2023/10/08 12:49:57;;;;;;;21.70;5.85;;;;;;;20.73;60.89;101891.75;2383414;74;22188;-77
2023/10/08 12:53:03;;;;;;;32.35;8.18;;;;;;;20.71;60.84;101892.45;2383186;74;50601;-79
2023/10/08 12:56:14;;;;;;;22.85;5.85;;;;;;;20.73;60.92;101892.62;2350477;74;22279;-76
2023/10/08 12:59:20;;;;;;;22.20;4.75;;;;;;;20.71;60.39;101892.45;2359472;73;22282;-77
2023/10/08 13:02:16;;;;;;;12.68;4.15;;;;;;;20.73;59.52;101891.27;2388677;73;23363;-78
2023/10/08 13:05:26;;;;;;;10.58;2.17;;;;;;;20.70;59.32;101886.72;2370855;73;52432;-77
2023/10/08 13:08:22;;;;;;;20.95;3.70;;;;;;;20.72;55.76;101894.95;2398148;73;22303;-77
2023/10/08 13:11:29;;;;;;;9.38;2.33;;;;;;;20.68;55.56;101896.79;2398593;73;50556;-77
2023/10/08 13:14:31;;;;;;;4.80;2.02;;;;;;;20.63;50.37;101871.26;2429946;73;23089;-77
2023/10/08 13:17:33;;;;;;;5.87;1.80;;;;;;;20.54;47.54;101874.06;2430271;73;51421;-77
2023/10/08 13:20:35;;;;;;;8.05;1.55;;;;;;;20.26;43.00;101866.79;2370897;73;52428;-77
2023/10/08 13:23:40;;;;;;;8.53;2.20;;;;;;;20.07;43.84;101889.42;2430151;73;50318;-78
2023/10/08 13:26:47;;;;;;;8.05;1.95;;;;;;;20.08;44.98;101879.83;2430723;73;50688;-78
2023/10/08 13:29:46;;;;;;;7.25;1.70;;;;;;;20.08;47.02;101893.27;2405996;73;21965;-78
2023/10/08 13:32:49;;;;;;;7.45;2.17;;;;;;;20.09;48.16;101892.28;2419751;73;50619;-78
2023/10/08 13:35:52;;;;;;;9.33;2.22;;;;;;;20.08;48.47;101895.95;2391685;73;50367;-78
2023/10/08 13:38:55;;;;;;;11.45;2.55;;;;;;;20.13;49.05;101887.41;2391832;73;51484;-79
2023/10/08 13:42:01;;;;;;;14.58;3.02;;;;;;;20.12;49.22;101890.61;2420375;73;50696;-77
2023/10/08 13:45:07;;;;;;;14.05;2.37;;;;;;;20.08;48.04;101882.52;2425597;73;22380;-76
2023/10/08 13:48:05;;;;;;;14.93;3.17;;;;;;;20.44;47.44;101884.45;2409186;73;22820;-77
2023/10/08 13:51:14;;;;;;;16.40;3.02;;;;;;;20.45;48.17;101871.38;2413040;73;51386;-77
2023/10/08 13:54:18;;;;;;;24.15;2.87;;;;;;;20.39;48.21;101887.31;2350908;73;52438;-79
2023/10/08 13:57:21;;;;;;;17.07;3.33;;;;;;;20.33;47.71;101898.73;2401663;73;50678;-79
2023/10/08 14:00:26;;;;;;;12.50;2.20;;;;;;;20.30;48.75;101903.09;2384516;73;51118;-78
2023/10/08 14:03:30;;;;;;;14.40;3.08;;;;;;;20.27;49.79;101905.61;2327233;75;22190;-79
2023/10/08 14:06:34;;;;;;;12.98;2.72;;;;;;;20.26;49.13;101908.45;2371032;74;50708;-77
2023/10/08 14:09:41;;;;;;;10.03;2.47;;;;;;;20.23;49.99;101898.87;2335598;75;50013;-79
2023/10/08 14:12:43;;;;;;;8.13;2.20;;;;;;;20.27;50.14;101902.92;2337592;75;22270;-77
2023/10/08 14:15:48;;;;;;;12.07;2.62;;;;;;;20.29;50.01;101901.39;2371491;75;51394;-78
2023/10/08 14:18:59;;;;;;;11.03;2.57;;;;;;;20.29;50.37;101886.10;2372066;75;25542;-78
2023/10/08 14:22:08;;;;;;;9.05;2.25;;;;;;;20.31;49.64;101879.23;2371283;75;22205;-78
2023/10/08 14:25:11;;;;;;;9.18;2.70;;;;;;;20.31;49.53;101891.33;2369995;75;22214;-78
2023/10/08 14:28:21;;;;;;;;;;;;;;;20.27;50.05;101885.93;2340657;73;22239;-77
2023/10/08 14:31:15;;;;;;;9.33;2.70;;;;;;;20.29;50.68;101898.20;2392668;73;22369;-78
2023/10/08 14:44:03;;;;;;;8.28;2.77;;;;;;;20.28;50.35;101890.32;2413910;73;22243;-77
2023/10/08 14:47:06;;;;;;;9.23;2.40;;;;;;;20.29;50.25;101890.64;2413722;73;50684;-78
2023/10/08 14:50:15;;;;;;;10.48;2.92;;;;;;;20.28;49.86;101890.32;2413887;73;51528;-77
2023/10/08 14:53:13;;;;;;;10.20;2.20;;;;;;;20.27;50.33;101894.86;2377452;73;22281;-77
2023/10/08 14:56:18;;;;;;;6.80;2.12;;;;;;;20.25;50.62;101890.66;2377390;73;50603;-77
2023/10/08 14:59:20;;;;;;;8.15;2.22;;;;;;;20.23;50.75;101892.14;2388655;73;22227;-78
2023/10/08 15:02:29;;;;;;;4.80;1.90;;;;;;;20.25;50.56;101897.38;2371709;75;51627;-78